Time;durP1;ratioP1;P1;durP2;ratioP2;P2;SDS_P1;SDS_P2;PMS_P1;PMS_P2;Temp;Humidity;BMP_temperature;BMP_pressure;BME280_temperature;BME280_humidity;BME280_pressure;Samples;Min_cycle;Max_cycle;Signal;HPM_P1;HPM_P2
2022/04/18 00:01:57;;;;;;;13.77;7.60;;;8.70;65.50;;;;;;5016142;28;20024;-86
2022/04/18 00:04:23;;;;;;;11.15;7.20;;;8.70;65.70;;;;;;5013472;28;20128;-86
2022/04/18 00:06:48;;;;;;;11.50;6.55;;;8.70;65.90;;;;;;5016403;28;20139;-86
2022/04/18 00:09:14;;;;;;;14.43;7.93;;;8.70;66.10;;;;;;5017008;28;20429;-86
2022/04/18 00:11:40;;;;;;;13.60;7.13;;;8.70;66.10;;;;;;5011544;28;20438;-86
2022/04/18 00:14:06;;;;;;;12.77;6.95;;;8.70;66.30;;;;;;5021569;28;20052;-86
2022/04/18 00:16:31;;;;;;;15.23;7.25;;;8.70;66.50;;;;;;5016766;28;20036;-87
2022/04/18 00:18:57;;;;;;;13.27;7.63;;;8.70;66.50;;;;;;5017323;28;20026;-86
2022/04/18 00:21:23;;;;;;;13.80;7.53;;;8.70;66.30;;;;;;5014579;28;20037;-86
2022/04/18 00:23:49;;;;;;;12.23;7.18;;;8.70;66.30;;;;;;5016626;28;20032;-86
2022/04/18 00:26:14;;;;;;;14.48;8.07;;;8.70;66.40;;;;;;5008464;28;20025;-86
2022/04/18 00:28:40;;;;;;;12.18;7.05;;;8.70;66.50;;;;;;5017143;28;20029;-86
2022/04/18 00:31:06;;;;;;;14.07;7.38;;;8.70;66.40;;;;;;5020139;28;20029;-86
2022/04/18 00:33:32;;;;;;;14.13;7.93;;;8.80;66.40;;;;;;5018557;28;20566;-86
2022/04/18 00:35:57;;;;;;;16.08;7.82;;;8.80;66.30;;;;;;5015498;28;20087;-86
2022/04/18 00:38:23;;;;;;;12.60;7.10;;;8.90;66.20;;;;;;5016825;28;20032;-86
2022/04/18 00:40:49;;;;;;;15.18;7.75;;;8.90;66.10;;;;;;5006290;28;20043;-86
2022/04/18 00:43:14;;;;;;;13.32;7.57;;;8.90;66.00;;;;;;4997952;28;20477;-87
2022/04/18 00:45:40;;;;;;;12.95;7.22;;;9.00;66.10;;;;;;5010670;28;20064;-87
2022/04/18 00:48:06;;;;;;;13.80;7.25;;;9.00;66.20;;;;;;5013721;28;20025;-86
2022/04/18 00:50:33;;;;;;;12.60;7.38;;;9.00;66.20;;;;;;5010501;28;20033;-86
2022/04/18 00:53:00;;;;;;;13.18;7.20;;;8.90;66.20;;;;;;5006004;28;20044;-86
2022/04/18 00:55:27;;;;;;;15.48;7.10;;;9.00;66.40;;;;;;5007865;28;20034;-86
2022/04/18 00:57:55;;;;;;;12.23;7.68;;;8.90;66.40;;;;;;5010548;28;20549;-87
2022/04/18 01:00:21;;;;;;;12.88;7.50;;;8.90;66.60;;;;;;5003430;28;20033;-87
2022/04/18 01:02:47;;;;;;;13.48;7.88;;;8.90;66.70;;;;;;5015973;28;20532;-86
2022/04/18 01:05:13;;;;;;;11.73;6.88;;;8.90;66.60;;;;;;5016551;28;20053;-87
2022/04/18 01:07:39;;;;;;;13.90;7.68;;;8.90;66.90;;;;;;5012552;28;20034;-87
2022/04/18 01:10:05;;;;;;;13.20;7.30;;;8.80;67.00;;;;;;5016530;28;20030;-87
2022/04/18 01:12:31;;;;;;;16.00;7.97;;;8.80;67.30;;;;;;5016678;28;20025;-86
2022/04/18 01:14:57;;;;;;;12.98;7.38;;;8.70;67.50;;;;;;5016600;28;20382;-86
2022/04/18 01:17:22;;;;;;;11.00;7.05;;;8.70;67.60;;;;;;5023048;28;20025;-87
2022/04/18 01:19:48;;;;;;;15.32;6.93;;;8.60;67.70;;;;;;5015638;28;20056;-86
2022/04/18 01:22:14;;;;;;;14.52;6.93;;;8.60;67.70;;;;;;5017276;28;20017;-86
2022/04/18 01:30:11;;;;;;;10.00;5.72;;;8.60;67.70;;;;;;5034135;28;20104;-87
2022/04/18 01:32:37;;;;;;;11.15;5.70;;;8.60;67.60;;;;;;5014141;28;20068;-86
2022/04/18 01:35:03;;;;;;;10.95;6.10;;;8.60;67.60;;;;;;5007335;28;20060;-86
2022/04/18 01:37:29;;;;;;;9.95;5.88;;;8.50;67.60;;;;;;5006562;28;20034;-86
2022/04/18 01:39:55;;;;;;;13.95;6.57;;;8.50;67.70;;;;;;5002794;28;20045;-86
2022/04/18 01:42:21;;;;;;;8.68;5.75;;;8.50;67.90;;;;;;5001894;28;20025;-86
2022/04/18 01:44:46;;;;;;;11.10;5.80;;;8.40;67.90;;;;;;4999473;28;20018;-86
2022/04/18 01:47:12;;;;;;;9.98;5.43;;;8.40;68.00;;;;;;5007440;28;20036;-86
2022/04/18 01:49:37;;;;;;;9.80;6.03;;;8.30;68.10;;;;;;5016007;28;20028;-87
2022/04/18 01:52:03;;;;;;;8.48;5.00;;;8.30;68.20;;;;;;5015892;28;20029;-86
2022/04/18 01:54:28;;;;;;;10.40;5.82;;;8.20;68.20;;;;;;5015471;28;20038;-86
2022/04/18 01:56:54;;;;;;;8.63;5.35;;;8.20;68.40;;;;;;5012054;28;20026;-86
2022/04/18 01:59:19;;;;;;;9.05;5.57;;;8.10;68.60;;;;;;5011237;28;20034;-86
2022/04/18 02:01:45;;;;;;;11.10;5.85;;;8.10;68.70;;;;;;5015217;28;20095;-86
2022/04/18 02:04:10;;;;;;;10.20;5.38;;;8.00;69.10;;;;;;5015726;28;20413;-86
2022/04/18 02:06:36;;;;;;;8.82;6.07;;;7.90;69.30;;;;;;5008174;28;20478;-86
2022/04/18 02:09:02;;;;;;;11.43;5.57;;;7.90;69.50;;;;;;5000531;28;20060;-86
2022/04/18 02:11:27;;;;;;;9.80;6.38;;;7.80;69.80;;;;;;5015419;28;20032;-86
2022/04/18 02:13:53;;;;;;;11.35;6.63;;;7.70;70.00;;;;;;4999423;28;20029;-86
2022/04/18 02:16:19;;;;;;;10.27;6.32;;;7.70;70.40;;;;;;5036744;28;20116;-86
2022/04/18 02:18:46;;;;;;;11.25;6.03;;;7.60;70.60;;;;;;5019619;28;20030;-86
2022/04/18 02:21:12;;;;;;;10.40;5.32;;;7.60;70.70;;;;;;5017800;28;20029;-86
2022/04/18 02:23:41;;;;;;;8.98;5.25;;;7.50;70.80;;;;;;5018247;28;20029;-86
2022/04/18 02:26:06;;;;;;;10.15;5.22;;;7.50;71.10;;;;;;5019724;28;20032;-86
2022/04/18 02:28:32;;;;;;;10.45;6.00;;;7.40;71.10;;;;;;5017754;28;20017;-87
2022/04/18 02:30:58;;;;;;;10.93;5.68;;;7.40;71.20;;;;;;5019840;28;20543;-87
2022/04/18 02:33:24;;;;;;;10.48;5.60;;;7.40;71.50;;;;;;5017200;28;20028;-87
2022/04/18 02:35:49;;;;;;;9.98;5.15;;;7.30;71.60;;;;;;5000550;28;20120;-86
2022/04/18 02:38:15;;;;;;;9.15;5.03;;;7.30;71.90;;;;;;5015799;28;20504;-86
2022/04/18 02:40:41;;;;;;;8.35;4.75;;;7.30;72.10;;;;;;5000315;28;20497;-87
2022/04/18 02:43:06;;;;;;;11.32;4.93;;;7.20;72.20;;;;;;5018909;28;20029;-86
2022/04/18 02:45:32;;;;;;;11.18;4.97;;;7.20;72.40;;;;;;5013334;28;20381;-86
2022/04/18 02:47:58;;;;;;;8.25;5.10;;;7.10;72.70;;;;;;5018635;28;20911;-86
2022/04/18 02:50:25;;;;;;;11.65;5.43;;;7.10;72.80;;;;;;5012355;28;20022;-87
2022/04/18 02:52:50;;;;;;;9.60;4.85;;;7.00;73.10;;;;;;5011257;28;20033;-87
2022/04/18 02:55:16;;;;;;;10.10;4.30;;;6.90;73.30;;;;;;5017718;28;20037;-86
2022/04/18 02:57:41;;;;;;;11.18;5.57;;;6.90;73.50;;;;;;5010580;28;20389;-86
2022/04/18 03:00:11;;;;;;;11.10;4.30;;;6.80;73.80;;;;;;5014903;28;20030;-86
2022/04/18 03:02:38;;;;;;;7.93;4.40;;;6.80;73.90;;;;;;5010044;28;20026;-86
2022/04/18 03:05:06;;;;;;;7.93;4.40;;;6.80;74.30;;;;;;5011426;28;20050;-86
2022/04/18 03:07:32;;;;;;;7.30;3.88;;;6.70;74.40;;;;;;5009382;28;20017;-87
2022/04/18 03:09:58;;;;;;;8.52;4.50;;;6.70;74.80;;;;;;5018755;28;20049;-86
2022/04/18 03:12:23;;;;;;;8.60;4.10;;;6.60;75.00;;;;;;5017301;28;20026;-86
2022/04/18 03:14:49;;;;;;;7.43;3.60;;;6.60;75.20;;;;;;5012281;28;20034;-86
2022/04/18 03:17:15;;;;;;;6.78;3.97;;;6.60;75.40;;;;;;5013025;28;20034;-87
2022/04/18 03:19:41;;;;;;;10.65;4.00;;;6.50;75.40;;;;;;5018173;28;20041;-87
2022/04/18 03:22:07;;;;;;;8.55;4.18;;;6.50;75.60;;;;;;5009478;28;20417;-86
2022/04/18 03:24:33;;;;;;;7.97;4.05;;;6.50;76.00;;;;;;5018163;28;20029;-86
2022/04/18 03:27:02;;;;;;;7.50;4.32;;;6.40;76.20;;;;;;5019333;28;20501;-87
2022/04/18 03:29:28;;;;;;;6.03;3.47;;;6.30;76.40;;;;;;5017729;28;20064;-86
2022/04/18 03:31:54;;;;;;;5.90;3.55;;;6.30;76.60;;;;;;5017137;28;20057;-86
2022/04/18 03:34:20;;;;;;;8.65;4.13;;;6.30;76.80;;;;;;5023658;28;20433;-86
2022/04/18 03:42:13;;;;;;;7.15;3.22;;;6.20;77.40;;;;;;5023185;28;20512;-87
2022/04/18 03:44:44;;;;;;;6.43;3.58;;;6.20;77.60;;;;;;5004939;28;20021;-87
2022/04/18 03:47:14;;;;;;;8.07;3.35;;;6.20;77.80;;;;;;5008338;28;20040;-87
2022/04/18 03:49:41;;;;;;;8.43;3.55;;;6.20;78.00;;;;;;5004637;28;20037;-87
2022/04/18 03:52:07;;;;;;;9.82;3.60;;;6.20;78.00;;;;;;5014806;28;20029;-86
2022/04/18 03:54:34;;;;;;;7.07;3.55;;;6.20;78.20;;;;;;5008135;28;20124;-86
2022/04/18 03:57:00;;;;;;;5.00;3.00;;;6.20;78.50;;;;;;5004896;28;20036;-86
2022/04/18 03:59:26;;;;;;;8.18;3.70;;;6.10;78.70;;;;;;4999576;28;20120;-87
2022/04/18 04:01:51;;;;;;;6.05;3.92;;;6.10;79.00;;;;;;5005035;28;20116;-86
2022/04/18 04:04:17;;;;;;;6.72;3.13;;;6.00;79.20;;;;;;5007735;28;20042;-86
2022/04/18 04:06:42;;;;;;;6.65;3.42;;;6.00;79.50;;;;;;5013304;28;20025;-85
2022/04/18 04:09:08;;;;;;;7.68;3.15;;;6.00;79.60;;;;;;5013986;28;20504;-86
2022/04/18 04:11:33;;;;;;;10.63;3.50;;;5.90;79.90;;;;;;5021062;28;20028;-86
2022/04/18 04:13:59;;;;;;;6.28;2.85;;;5.90;80.20;;;;;;4998767;28;20037;-86
2022/04/18 04:16:25;;;;;;;6.40;2.58;;;5.80;81.10;;;;;;4998214;28;20033;-87
2022/04/18 04:18:50;;;;;;;6.38;3.25;;;5.80;80.70;;;;;;5012767;28;20029;-86
2022/04/18 04:21:16;;;;;;;6.03;2.92;;;5.80;81.00;;;;;;5018342;28;20038;-86
2022/04/18 04:23:41;;;;;;;4.90;2.85;;;5.80;81.20;;;;;;5016102;28;20116;-86
2022/04/18 04:26:07;;;;;;;7.88;3.55;;;5.70;81.40;;;;;;5025895;28;20113;-86
2022/04/18 04:28:34;;;;;;;6.60;3.00;;;5.70;81.70;;;;;;5017058;28;20021;-85
2022/04/18 04:30:59;;;;;;;8.75;3.22;;;5.70;81.90;;;;;;5015479;28;20041;-85
2022/04/18 04:33:25;;;;;;;7.22;3.35;;;5.70;82.10;;;;;;5007206;28;20485;-88
2022/04/18 04:35:51;;;;;;;6.15;3.28;;;5.70;82.10;;;;;;5029047;28;20038;-86
2022/04/18 04:38:16;;;;;;;7.22;3.42;;;5.70;82.40;;;;;;5012679;28;20033;-87
2022/04/18 04:40:42;;;;;;;6.70;3.33;;;5.70;82.40;;;;;;5014668;28;20069;-86
2022/04/18 04:43:09;;;;;;;7.00;2.90;;;5.70;82.60;;;;;;5002981;28;20120;-86
2022/04/18 04:45:35;;;;;;;6.32;3.10;;;5.70;82.60;;;;;;5012409;28;20033;-86
2022/04/18 04:48:00;;;;;;;4.05;3.00;;;5.80;82.70;;;;;;5028146;28;20028;-87
2022/04/18 04:50:26;;;;;;;9.85;4.60;;;5.80;82.70;;;;;;5014477;28;20385;-87
2022/04/18 04:52:52;;;;;;;5.47;2.47;;;5.80;82.60;;;;;;5014745;28;20032;-87
2022/04/18 04:55:17;;;;;;;7.00;3.08;;;5.80;82.70;;;;;;5005406;28;20033;-87
2022/04/18 04:57:44;;;;;;;6.70;2.53;;;5.80;82.80;;;;;;5007809;28;20022;-87
2022/04/18 05:00:09;;;;;;;8.05;2.92;;;5.80;83.10;;;;;;5013322;28;20067;-87
2022/04/18 05:02:35;;;;;;;4.72;3.00;;;5.80;83.30;;;;;;5013848;28;20029;-87
2022/04/18 05:05:01;;;;;;;7.25;2.92;;;5.90;83.40;;;;;;5014350;28;20045;-87
2022/04/18 05:07:26;;;;;;;5.40;2.95;;;5.90;83.50;;;;;;5015815;28;20485;-88
2022/04/18 05:09:51;;;;;;;7.18;2.20;;;5.90;83.50;;;;;;5015923;28;20029;-88
2022/04/18 05:12:18;;;;;;;5.72;2.88;;;5.90;83.60;;;;;;5009521;28;20025;-87
2022/04/18 05:14:43;;;;;;;7.68;2.92;;;6.00;83.80;;;;;;5006634;28;20029;-88
2022/04/18 05:17:09;;;;;;;5.57;2.38;;;6.00;83.90;;;;;;5009856;28;20099;-87
2022/04/18 05:19:34;;;;;;;6.88;2.53;;;6.00;83.90;;;;;;5002757;28;20025;-87
2022/04/18 05:22:00;;;;;;;4.85;2.25;;;6.10;84.00;;;;;;5011756;28;20065;-87
2022/04/18 05:24:25;;;;;;;3.75;1.75;;;6.10;83.90;;;;;;5018365;28;20063;-88
2022/04/18 05:26:51;;;;;;;4.20;2.10;;;6.20;83.80;;;;;;5018609;28;20033;-87
2022/04/18 05:29:16;;;;;;;4.30;2.20;;;6.30;83.70;;;;;;5016171;28;20392;-87
2022/04/18 05:31:42;;;;;;;4.90;2.00;;;6.40;83.70;;;;;;5014657;28;20021;-86
2022/04/18 05:34:07;;;;;;;3.53;1.77;;;6.50;83.50;;;;;;5028940;28;20037;-87
2022/04/18 05:36:33;;;;;;;4.53;2.00;;;6.60;83.20;;;;;;5013838;28;20021;-87
2022/04/18 05:38:58;;;;;;;4.28;1.73;;;6.60;83.00;;;;;;5017457;28;20517;-87
2022/04/18 05:41:24;;;;;;;5.38;2.03;;;6.70;83.00;;;;;;5006542;28;20088;-87
2022/04/18 05:43:49;;;;;;;10.80;1.88;;;6.80;82.90;;;;;;5012948;28;20100;-87
2022/04/18 05:46:15;;;;;;;3.63;1.88;;;6.90;82.80;;;;;;5013231;28;20091;-87
2022/04/18 05:48:41;;;;;;;3.17;1.65;;;7.00;83.30;;;;;;5006617;28;20075;-86
2022/04/18 05:51:07;;;;;;;2.97;1.48;;;7.10;82.50;;;;;;5015533;28;20032;-86
2022/04/18 05:53:33;;;;;;;5.30;1.42;;;7.10;82.30;;;;;;5015520;28;20477;-86
2022/04/18 05:55:59;;;;;;;3.28;1.48;;;7.30;81.90;;;;;;5015333;28;20086;-86
2022/04/18 05:58:24;;;;;;;6.07;1.70;;;7.40;81.60;;;;;;5011439;28;20018;-87
2022/04/18 06:00:50;;;;;;;4.25;1.52;;;7.50;81.30;;;;;;5014470;28;20065;-87
2022/04/18 06:03:15;;;;;;;4.22;2.00;;;7.50;81.10;;;;;;5006549;28;20508;-88
2022/04/18 06:05:41;;;;;;;4.50;1.77;;;7.70;81.10;;;;;;5005838;28;20496;-87
2022/04/18 06:08:07;;;;;;;5.22;1.77;;;7.80;81.10;;;;;;5010208;28;20056;-86
2022/04/18 06:10:33;;;;;;;3.60;1.67;;;7.80;81.00;;;;;;5006510;28;20026;-87
2022/04/18 06:12:59;;;;;;;5.82;2.00;;;8.00;80.80;;;;;;5015533;28;20496;-87
2022/04/18 06:15:25;;;;;;;3.38;1.48;;;8.10;80.50;;;;;;5016044;28;20026;-87
2022/04/18 06:17:50;;;;;;;4.30;1.70;;;8.20;80.20;;;;;;5014804;28;20037;-87
2022/04/18 06:20:16;;;;;;;5.68;1.90;;;8.30;80.10;;;;;;5005861;28;20076;-87
2022/04/18 06:22:41;;;;;;;3.97;1.52;;;8.50;80.20;;;;;;5015148;28;20022;-88
2022/04/18 06:25:07;;;;;;;3.58;1.48;;;8.60;80.00;;;;;;5015846;28;20022;-86
2022/04/18 06:27:33;;;;;;;5.88;1.58;;;8.70;79.40;;;;;;5009325;28;20045;-86
2022/04/18 06:29:58;;;;;;;9.95;1.90;;;8.90;79.30;;;;;;4999638;28;20247;-86
2022/04/18 06:32:25;;;;;;;5.15;2.03;;;9.00;79.20;;;;;;5015827;28;20029;-87
2022/04/18 06:34:51;;;;;;;3.38;1.58;;;9.10;78.70;;;;;;5011314;28;20049;-87
2022/04/18 06:37:16;;;;;;;4.45;1.73;;;9.20;78.50;;;;;;5010095;28;20025;-87
2022/04/18 06:39:43;;;;;;;4.72;1.85;;;9.30;78.00;;;;;;4997746;28;20482;-85
2022/04/18 06:42:09;;;;;;;3.15;1.70;;;9.50;77.80;;;;;;4999548;28;20056;-87
2022/04/18 06:44:35;;;;;;;2.95;1.73;;;9.60;77.20;;;;;;5006905;28;20025;-87
2022/04/18 06:47:00;;;;;;;4.97;1.65;;;9.70;77.10;;;;;;5012508;28;20036;-87
2022/04/18 06:49:26;;;;;;;5.28;1.67;;;9.80;77.30;;;;;;5010382;28;20029;-86
2022/04/18 06:51:51;;;;;;;4.65;1.50;;;9.90;76.60;;;;;;5011006;28;20037;-86
2022/04/18 06:54:17;;;;;;;4.80;1.75;;;10.00;76.70;;;;;;5022958;28;20028;-86
2022/04/18 06:57:01;;;;;;;5.18;1.65;;;10.10;76.20;;;;;;5014111;28;20536;-86
2022/04/18 06:59:28;;;;;;;4.10;1.80;;;10.20;75.70;;;;;;5013976;28;20022;-87
2022/04/18 07:01:54;;;;;;;3.22;1.83;;;10.30;75.80;;;;;;5017074;28;20053;-86
2022/04/18 07:04:20;;;;;;;5.05;2.00;;;10.30;75.60;;;;;;5012328;28;20490;-87
2022/04/18 07:06:45;;;;;;;3.45;2.03;;;10.40;76.00;;;;;;5006208;28;20018;-86
2022/04/18 07:09:11;;;;;;;3.80;1.70;;;10.60;76.00;;;;;;5007832;28;20394;-86
2022/04/18 07:11:37;;;;;;;4.07;1.70;;;10.70;75.90;;;;;;5001887;28;20076;-88
2022/04/18 07:14:03;;;;;;;11.93;1.83;;;10.90;75.90;;;;;;5003390;28;20064;-88
2022/04/18 07:16:30;;;;;;;6.00;2.10;;;11.00;75.40;;;;;;5013871;28;20052;-86
2022/04/18 07:18:57;;;;;;;4.03;2.22;;;11.10;75.00;;;;;;5018518;28;20064;-86
2022/04/18 07:21:23;;;;;;;2.63;1.55;;;11.30;74.40;;;;;;5017716;28;20041;-86
2022/04/18 07:23:49;;;;;;;3.60;1.30;;;11.40;74.30;;;;;;5018235;28;20025;-86
2022/04/18 07:26:14;;;;;;;5.43;1.67;;;11.60;74.00;;;;;;5017120;28;20096;-87
2022/04/18 07:28:40;;;;;;;4.50;1.50;;;11.70;73.80;;;;;;5012817;28;20025;-86
2022/04/18 07:31:06;;;;;;;3.55;2.22;;;11.80;73.10;;;;;;5012297;28;20029;-87
2022/04/18 07:33:33;;;;;;;3.33;1.65;;;12.00;72.30;;;;;;5018797;28;20116;-87
2022/04/18 07:35:59;;;;;;;9.80;1.50;;;12.00;71.70;;;;;;5018018;28;20151;-87
2022/04/18 07:41:08;;;;;;;5.90;1.58;;;12.20;71.80;;;;;;5035412;28;20044;-86
2022/04/18 07:43:34;;;;;;;3.40;1.60;;;12.30;71.50;;;;;;5017718;28;20022;-87
2022/04/18 07:46:02;;;;;;;6.18;1.40;;;12.50;71.10;;;;;;5010325;28;20034;-87
2022/04/18 07:48:28;;;;;;;5.30;1.70;;;12.60;70.80;;;;;;5016723;28;20430;-87
2022/04/18 07:53:38;;;;;;;4.57;1.52;;;12.80;70.10;;;;;;5027364;28;20179;-86
2022/04/18 07:56:04;;;;;;;4.60;1.38;;;12.90;69.80;;;;;;5018039;28;20509;-87
2022/04/18 07:58:29;;;;;;;5.85;1.50;;;13.00;69.40;;;;;;5017972;28;20027;-86
2022/04/18 08:00:55;;;;;;;5.63;1.42;;;13.20;68.80;;;;;;5020352;28;20508;-87
2022/04/18 08:03:20;;;;;;;6.38;2.45;;;13.30;69.00;;;;;;5022168;28;20493;-87
2022/04/18 08:05:45;;;;;;;3.85;1.27;;;13.40;68.70;;;;;;5017244;28;20041;-87
2022/04/18 08:08:11;;;;;;;3.00;1.40;;;13.60;68.40;;;;;;5018071;28;20029;-87
2022/04/18 08:10:37;;;;;;;2.67;1.30;;;13.70;67.90;;;;;;5017293;28;20389;-87
2022/04/18 08:13:04;;;;;;;4.70;1.50;;;13.70;67.20;;;;;;5015726;28;20032;-86
2022/04/18 08:15:30;;;;;;;5.55;1.77;;;13.80;66.70;;;;;;5011192;28;20561;-87
2022/04/18 08:17:56;;;;;;;2.67;1.38;;;13.80;66.90;;;;;;5032903;28;20075;-86
2022/04/18 08:20:21;;;;;;;4.15;1.20;;;13.90;67.00;;;;;;5032210;28;20116;-86
2022/04/18 08:22:47;;;;;;;2.72;1.48;;;14.00;66.40;;;;;;5020118;28;20069;-87
2022/04/18 08:25:13;;;;;;;3.63;1.63;;;14.10;65.80;;;;;;5016825;28;20132;-87
2022/04/18 08:27:39;;;;;;;5.47;1.75;;;14.30;65.30;;;;;;5017549;28;20389;-86
2022/04/18 08:30:05;;;;;;;4.60;1.38;;;14.40;65.50;;;;;;5017428;28;20029;-87
2022/04/18 08:32:38;;;;;;;3.20;1.25;;;14.60;65.10;;;;;;5017020;28;20085;-87
2022/04/18 08:35:05;;;;;;;4.40;1.83;;;14.70;64.80;;;;;;5016891;28;20030;-86
2022/04/18 08:37:30;;;;;;;3.08;1.17;;;14.90;65.30;;;;;;5010250;28;20018;-87
2022/04/18 08:39:56;;;;;;;4.55;1.50;;;15.00;64.90;;;;;;5017144;28;20032;-87
2022/04/18 08:42:23;;;;;;;3.55;1.88;;;15.20;64.70;;;;;;5003840;28;20478;-87
2022/04/18 08:44:51;;;;;;;2.30;1.17;;;15.40;64.00;;;;;;5011205;28;20029;-86
2022/04/18 08:52:50;;;;;;;3.92;1.10;;;15.80;63.00;;;;;;5017920;28;20069;-86
2022/04/18 08:55:19;;;;;;;3.50;1.17;;;15.90;62.70;;;;;;5016756;28;20029;-87
2022/04/18 08:57:45;;;;;;;3.03;1.10;;;16.00;62.60;;;;;;5002445;28;20030;-87
2022/04/18 09:00:12;;;;;;;3.50;1.25;;;16.20;61.50;;;;;;5016588;28;20040;-87
2022/04/18 09:02:38;;;;;;;2.42;1.10;;;16.20;60.80;;;;;;5016786;28;20099;-88
2022/04/18 09:05:09;;;;;;;2.33;1.00;;;16.30;59.30;;;;;;5012480;28;20050;-88
2022/04/18 09:07:34;;;;;;;2.50;1.08;;;16.30;58.50;;;;;;5012836;28;20070;-88
2022/04/18 09:10:00;;;;;;;4.55;1.30;;;16.40;58.60;;;;;;5011164;28;20506;-88
2022/04/18 09:12:29;;;;;;;3.65;1.05;;;16.50;58.30;;;;;;5006352;28;20033;-87
2022/04/18 09:14:55;;;;;;;3.05;1.25;;;16.60;58.00;;;;;;5009285;28;20025;-87
2022/04/18 09:17:34;;;;;;;1.90;1.00;;;16.60;57.70;;;;;;5012521;28;20037;-88
2022/04/18 09:20:13;;;;;;;4.80;1.00;;;16.70;57.60;;;;;;5012239;28;20053;-88
2022/04/18 09:22:47;;;;;;;3.30;1.10;;;16.70;57.80;;;;;;5012083;28;20029;-88
2022/04/18 09:25:17;;;;;;;2.03;1.02;;;16.80;57.70;;;;;;4997601;28;20038;-88
2022/04/18 09:27:54;;;;;;;2.50;1.20;;;16.80;57.70;;;;;;4998288;28;20064;-87
2022/04/18 09:30:20;;;;;;;3.67;1.48;;;16.90;56.90;;;;;;4992808;28;20121;-88
2022/04/18 09:32:56;;;;;;;2.75;1.15;;;16.90;56.40;;;;;;5012063;28;20101;-88
2022/04/18 09:35:25;;;;;;;2.50;1.20;;;17.00;56.20;;;;;;5011921;28;20036;-88
2022/04/18 09:37:53;;;;;;;4.13;1.15;;;17.10;55.60;;;;;;5011818;28;20026;-88
2022/04/18 09:40:22;;;;;;;3.05;0.90;;;17.20;55.00;;;;;;5011845;28;20037;-88
2022/04/18 09:42:52;;;;;;;2.58;1.00;;;17.30;54.20;;;;;;5004321;28;20024;-88
2022/04/18 09:45:18;;;;;;;6.57;1.23;;;17.30;54.60;;;;;;5008726;28;20044;-87
2022/04/18 09:47:52;;;;;;;2.65;1.00;;;17.40;53.20;;;;;;5011955;28;20026;-87
2022/04/18 09:53:08;;;;;;;3.03;1.20;;;17.40;53.70;;;;;;5009108;28;20077;-87
2022/04/18 09:55:34;;;;;;;2.22;1.02;;;17.40;53.40;;;;;;5010455;28;20025;-88
2022/04/18 09:58:04;;;;;;;3.88;1.10;;;17.50;53.00;;;;;;4996049;28;20037;-88
2022/04/18 10:00:29;;;;;;;2.78;1.05;;;17.60;52.60;;;;;;5011754;28;20103;-88
2022/04/18 10:02:57;;;;;;;3.83;0.88;;;17.60;53.40;;;;;;5011428;28;20018;-88
2022/04/18 10:05:23;;;;;;;2.47;1.23;;;17.70;52.50;;;;;;4981320;28;141187;-88
2022/04/18 10:07:50;;;;;;;2.75;1.30;;;17.70;51.80;;;;;;5010959;28;20042;-88
2022/04/18 10:10:15;;;;;;;2.40;0.82;;;17.80;51.50;;;;;;4995493;28;20026;-88
2022/04/18 10:12:41;;;;;;;1.75;1.10;;;17.90;51.50;;;;;;5012184;28;20033;-88
2022/04/18 10:15:07;;;;;;;4.13;1.02;;;18.00;50.80;;;;;;5012155;28;20053;-88
2022/04/18 10:17:38;;;;;;;3.72;1.40;;;18.10;50.30;;;;;;5012678;28;20026;-88
2022/04/18 10:20:38;;;;;;;5.70;0.93;;;18.20;50.20;;;;;;5012127;28;20042;-88
2022/04/18 10:23:15;;;;;;;2.83;1.30;;;18.40;50.60;;;;;;5008258;28;20689;-88
2022/04/18 10:26:28;;;;;;;4.05;1.35;;;18.40;49.60;;;;;;5012249;28;20448;-88
2022/04/18 10:28:59;;;;;;;3.38;1.40;;;18.50;49.60;;;;;;5012062;28;20060;-88
2022/04/18 10:31:39;;;;;;;1.90;1.20;;;18.60;48.80;;;;;;5012362;28;20026;-88
2022/04/18 10:34:06;;;;;;;4.38;1.50;;;18.60;48.80;;;;;;5006960;28;20030;-88
2022/04/18 10:36:33;;;;;;;3.50;1.58;;;18.70;48.60;;;;;;5007466;28;20026;-89
2022/04/18 10:39:07;;;;;;;3.65;1.08;;;18.80;50.00;;;;;;5014790;28;20037;-87
2022/04/18 10:41:44;;;;;;;3.47;1.63;;;18.90;49.10;;;;;;5006393;28;20037;-86
2022/04/18 10:44:14;;;;;;;3.92;1.15;;;19.00;48.40;;;;;;5004150;28;20489;-87
2022/04/18 10:46:41;;;;;;;1.42;0.68;;;19.00;48.30;;;;;;5015865;28;20545;-85
2022/04/18 10:49:14;;;;;;;3.10;1.02;;;19.20;48.10;;;;;;5014551;28;20022;-86
2022/04/18 10:51:41;;;;;;;3.78;1.63;;;19.30;48.20;;;;;;5013598;28;20068;-86
2022/04/18 10:54:20;;;;;;;3.45;1.17;;;19.40;48.50;;;;;;5012546;28;20041;-86
2022/04/18 10:57:11;;;;;;;3.15;1.35;;;19.50;48.20;;;;;;5015424;28;20054;-86
2022/04/18 10:59:41;;;;;;;1.90;1.08;;;19.50;47.50;;;;;;5007886;28;20022;-86
2022/04/18 11:02:07;;;;;;;3.60;1.20;;;19.50;47.50;;;;;;5014341;28;20120;-86
2022/04/18 11:04:44;;;;;;;2.25;1.20;;;19.50;46.50;;;;;;4999343;28;20041;-86
2022/04/18 11:07:10;;;;;;;2.28;1.00;;;19.50;47.00;;;;;;5002452;28;20034;-87
2022/04/18 11:09:39;;;;;;;2.22;1.10;;;19.50;46.70;;;;;;5012456;28;20113;-87
2022/04/18 11:12:10;;;;;;;2.08;1.00;;;19.50;46.60;;;;;;5013329;28;20030;-86
2022/04/18 11:14:38;;;;;;;5.03;2.13;;;19.50;46.40;;;;;;5005575;28;20068;-86
2022/04/18 11:17:06;;;;;;;2.20;1.30;;;19.50;45.80;;;;;;5007147;28;20030;-86
2022/04/18 11:19:36;;;;;;;2.90;1.30;;;19.50;46.10;;;;;;5011644;28;20160;-86
2022/04/18 11:22:04;;;;;;;3.75;1.85;;;19.50;45.60;;;;;;5008909;28;20058;-86
2022/04/18 11:24:44;;;;;;;3.50;1.33;;;19.50;45.70;;;;;;5004734;28;20030;-87
2022/04/18 11:27:17;;;;;;;4.10;1.45;;;19.50;46.50;;;;;;5014140;28;20128;-87
2022/04/18 11:29:50;;;;;;;5.57;1.58;;;19.50;47.10;;;;;;5013374;28;20379;-86
2022/04/18 11:32:18;;;;;;;3.83;1.63;;;19.70;47.30;;;;;;5011516;28;20071;-87
2022/04/18 11:34:49;;;;;;;2.47;1.45;;;19.60;45.70;;;;;;5014538;28;20032;-87
2022/04/18 11:37:43;;;;;;;3.22;1.88;;;19.60;45.30;;;;;;5009158;28;20022;-86
2022/04/18 11:40:14;;;;;;;2.25;1.45;;;19.50;46.10;;;;;;5005739;28;20560;-87
2022/04/18 11:42:41;;;;;;;3.30;1.45;;;19.60;46.50;;;;;;5025379;28;20028;-87
2022/04/18 11:45:20;;;;;;;2.78;1.45;;;19.70;46.30;;;;;;5005928;28;20037;-87
2022/04/18 11:47:47;;;;;;;2.92;1.48;;;19.80;45.30;;;;;;4998919;28;20022;-86
2022/04/18 11:50:15;;;;;;;2.42;1.50;;;19.80;45.40;;;;;;5006640;28;20030;-87
2022/04/18 11:52:41;;;;;;;2.33;1.40;;;19.90;45.40;;;;;;5022641;28;20030;-87
2022/04/18 11:55:15;;;;;;;2.97;1.15;;;19.90;45.00;;;;;;5001689;28;20030;-86
2022/04/18 11:57:42;;;;;;;3.53;1.52;;;20.00;45.40;;;;;;5000132;28;20030;-87
2022/04/18 12:06:44;;;;;;;2.42;0.90;;;20.10;45.20;;;;;;5007571;28;20029;-87
2022/04/18 12:08:36;;;;;;;2.83;0.93;;;20.20;44.40;;;;;;5026356;28;20078;-86
2022/04/18 12:11:02;;;;;;;4.10;1.10;;;20.30;44.10;;;;;;5009807;28;20034;-87
2022/04/18 12:13:29;;;;;;;2.72;1.13;;;20.30;43.60;;;;;;5014868;28;20281;-86
2022/04/18 12:15:54;;;;;;;2.55;1.20;;;20.30;43.80;;;;;;4998141;28;20494;-86
2022/04/18 12:18:20;;;;;;;3.47;1.15;;;20.30;43.10;;;;;;5020845;28;20030;-87
2022/04/18 12:20:48;;;;;;;3.35;1.27;;;20.20;43.60;;;;;;5005472;28;20034;-86
2022/04/18 12:23:19;;;;;;;1.98;1.00;;;20.30;43.70;;;;;;5014184;28;20037;-86
2022/04/18 12:25:57;;;;;;;4.97;1.07;;;20.50;43.90;;;;;;5025001;28;20030;-87
2022/04/18 12:28:24;;;;;;;2.63;1.30;;;20.60;43.30;;;;;;5018411;28;20288;-88
2022/04/18 12:30:51;;;;;;;1.70;0.85;;;20.50;42.30;;;;;;5011846;28;20026;-88
2022/04/18 12:33:22;;;;;;;2.60;0.88;;;20.60;42.80;;;;;;5013739;28;20033;-87
2022/04/18 12:35:51;;;;;;;1.80;0.93;;;20.60;41.70;;;;;;5007130;28;20034;-87
2022/04/18 12:38:18;;;;;;;8.10;2.08;;;20.70;42.90;;;;;;5015253;28;20040;-87
2022/04/18 12:40:53;;;;;;;5.60;1.45;;;20.80;42.90;;;;;;5005281;28;20171;-87
2022/04/18 12:43:19;;;;;;;1.90;0.88;;;21.00;42.70;;;;;;5015126;28;20034;-86
2022/04/18 12:45:55;;;;;;;3.42;0.80;;;21.10;43.90;;;;;;5008529;28;20033;-87
2022/04/18 12:48:27;;;;;;;4.28;1.00;;;21.10;42.30;;;;;;5008316;28;20022;-86
2022/04/18 12:50:53;;;;;;;3.85;0.70;;;21.20;42.30;;;;;;5015145;28;20084;-87
2022/04/18 12:53:21;;;;;;;4.15;0.93;;;21.20;41.50;;;;;;5016313;28;20498;-90
2022/04/18 12:55:47;;;;;;;4.18;1.30;;;21.20;41.90;;;;;;5011788;28;20087;-90
2022/04/18 12:58:20;;;;;;;5.22;1.10;;;21.30;41.90;;;;;;5014473;28;20029;-90
2022/04/18 13:00:49;;;;;;;1.20;0.50;;;21.40;41.80;;;;;;5029153;28;20029;-91
2022/04/18 13:03:17;;;;;;;1.75;0.70;;;21.40;41.90;;;;;;5021813;28;20032;-90
2022/04/18 13:05:44;;;;;;;2.42;1.02;;;21.50;41.60;;;;;;5016937;28;20112;-90
2022/04/18 13:08:10;;;;;;;2.10;0.80;;;21.60;41.40;;;;;;5017172;28;20112;-86
2022/04/18 13:10:37;;;;;;;7.05;1.00;;;21.60;40.60;;;;;;5016344;28;20461;-87
2022/04/18 13:13:15;;;;;;;3.08;0.75;;;21.50;40.20;;;;;;5015770;28;20025;-86
2022/04/18 13:15:43;;;;;;;2.22;0.70;;;21.30;38.90;;;;;;5015953;28;20516;-86
2022/04/18 13:18:19;;;;;;;3.20;0.73;;;21.30;39.90;;;;;;5016301;28;20075;-85
2022/04/18 13:20:45;;;;;;;1.58;0.80;;;21.40;40.20;;;;;;4996437;28;20510;-87
2022/04/18 13:23:11;;;;;;;1.70;0.70;;;21.50;40.50;;;;;;5007934;28;20120;-86